Time;durP1;ratioP1;P1;durP2;ratioP2;P2;SDS_P1;SDS_P2;PMS_P1;PMS_P2;Temp;Humidity;BMP_temperature;BMP_pressure;BME280_temperature;BME280_humidity;BME280_pressure;Samples;Min_cycle;Max_cycle;Signal;HPM_P1;HPM_P2
2022/04/16 00:02:07;;;;;;;45.90;38.25;;;28.90;89.30;;;;;;1882700;74;21103;-82
2022/04/16 00:04:41;;;;;;;44.67;38.25;;;28.90;89.40;;;;;;1847834;76;21097;-80
2022/04/16 00:07:10;;;;;;;43.68;38.95;;;28.80;89.40;;;;;;1885223;74;21145;-81
2022/04/16 00:09:42;;;;;;;44.18;38.92;;;28.80;89.80;;;;;;1885094;74;21064;-82
2022/04/16 00:12:13;;;;;;;44.80;38.73;;;28.80;90.10;;;;;;1864783;76;21160;-83
2022/04/16 00:14:44;;;;;;;42.40;38.00;;;28.70;90.20;;;;;;1861341;77;21153;-82
2022/04/16 00:17:15;;;;;;;42.90;38.00;;;28.70;90.30;;;;;;1881792;74;21091;-82
2022/04/16 00:19:46;;;;;;;43.35;38.78;;;28.70;90.20;;;;;;1894631;75;21138;-81
2022/04/16 00:22:18;;;;;;;46.05;37.60;;;28.80;90.20;;;;;;1894248;76;21103;-81
2022/04/16 00:24:50;;;;;;;43.63;37.28;;;28.80;89.80;;;;;;1903551;74;21079;-82
2022/04/16 00:27:24;;;;;;;43.85;38.53;;;28.90;89.60;;;;;;1885494;74;21059;-81
2022/04/16 00:30:14;;;;;;;43.63;37.50;;;28.90;89.60;;;;;;1899345;74;21193;-82
2022/04/16 00:32:40;;;;;;;47.50;37.63;;;29.00;89.90;;;;;;1786545;79;21146;-81
2022/04/16 00:35:13;;;;;;;41.45;36.58;;;29.00;88.30;;;;;;1817897;79;21141;-81
2022/04/16 00:37:44;;;;;;;43.33;37.90;;;29.00;88.80;;;;;;1794706;79;21111;-81
2022/04/16 00:40:15;;;;;;;42.83;38.20;;;29.10;88.90;;;;;;1793385;79;21146;-81
2022/04/16 00:42:46;;;;;;;45.10;37.30;;;29.10;89.50;;;;;;1782567;79;21110;-82
2022/04/16 00:45:17;;;;;;;43.48;36.93;;;29.00;89.50;;;;;;1791628;79;21226;-81
2022/04/16 00:47:48;;;;;;;41.37;36.53;;;29.00;89.70;;;;;;1797993;79;21114;-81
2022/04/16 00:50:19;;;;;;;41.25;36.17;;;29.10;89.20;;;;;;1804985;79;21158;-82
2022/04/16 00:52:50;;;;;;;44.73;36.60;;;29.10;89.10;;;;;;1807626;78;21146;-83
2022/04/16 00:55:21;;;;;;;42.73;38.02;;;29.10;89.10;;;;;;1800509;79;21102;-81
2022/04/16 00:57:53;;;;;;;41.83;37.25;;;29.10;89.10;;;;;;1799502;79;21114;-82
2022/04/16 01:00:23;;;;;;;45.55;37.95;;;29.10;89.50;;;;;;1788871;79;21157;-82
2022/04/16 01:02:56;;;;;;;43.52;38.55;;;29.10;89.70;;;;;;1797457;79;21168;-82
2022/04/16 01:05:27;;;;;;;41.53;36.88;;;29.10;89.70;;;;;;1794178;78;21226;-81
2022/04/16 01:08:02;;;;;;;44.55;37.75;;;29.10;89.00;;;;;;1794216;79;21194;-81
2022/04/16 01:10:34;;;;;;;42.60;38.00;;;29.10;89.10;;;;;;1830394;76;21135;-80
2022/04/16 01:13:07;;;;;;;46.23;41.28;;;29.20;89.40;;;;;;1856671;76;21077;-81
2022/04/16 01:15:39;;;;;;;45.70;38.25;;;29.20;89.50;;;;;;1857977;76;21135;-82
2022/04/16 01:18:10;;;;;;;44.27;39.58;;;29.20;90.10;;;;;;1837246;77;21088;-82
2022/04/16 01:20:41;;;;;;;42.60;37.95;;;29.20;88.40;;;;;;1841823;77;21225;-83
2022/04/16 01:23:12;;;;;;;42.30;37.50;;;29.30;88.30;;;;;;1835133;77;21143;-82
2022/04/16 01:25:45;;;;;;;45.50;37.73;;;29.40;88.20;;;;;;1841154;76;21150;-82
2022/04/16 01:28:16;;;;;;;42.70;38.10;;;29.50;86.70;;;;;;1848821;76;21140;-82
2022/04/16 01:30:47;;;;;;;42.03;37.40;;;29.60;86.60;;;;;;1851871;76;21883;-81
2022/04/16 01:33:22;;;;;;;42.00;35.95;;;29.60;87.50;;;;;;1860926;76;21411;-81
2022/04/16 01:35:56;;;;;;;43.73;37.75;;;29.70;86.00;;;;;;1898337;74;21183;-81
2022/04/16 01:38:26;;;;;;;44.08;39.05;;;29.80;85.70;;;;;;1892929;74;21110;-81
2022/04/16 01:40:59;;;;;;;39.80;35.63;;;29.90;84.70;;;;;;1890360;75;21118;-81
2022/04/16 01:43:30;;;;;;;39.55;35.50;;;29.90;84.40;;;;;;1816312;78;21111;-82
2022/04/16 01:46:02;;;;;;;42.08;36.35;;;30.00;84.30;;;;;;1833945;76;21254;-82
2022/04/16 01:48:34;;;;;;;43.73;37.93;;;30.10;85.40;;;;;;1911358;74;21079;-80
2022/04/16 01:51:05;;;;;;;41.68;36.15;;;30.20;84.00;;;;;;1905537;74;21130;-81
2022/04/16 01:53:38;;;;;;;39.38;35.20;;;30.20;84.20;;;;;;1854112;76;21133;-82
2022/04/16 01:56:09;;;;;;;39.53;35.50;;;30.30;83.60;;;;;;1855384;76;21067;-81
2022/04/16 01:58:46;;;;;;;41.77;35.70;;;30.40;83.40;;;;;;1903812;74;21212;-81
2022/04/16 02:01:18;;;;;;;44.40;35.68;;;30.50;81.40;;;;;;1912111;74;21248;-82
2022/04/16 02:03:55;;;;;;;38.00;34.05;;;30.50;81.20;;;;;;1908815;74;21519;-82
2022/04/16 02:06:26;;;;;;;40.12;35.38;;;30.60;81.30;;;;;;1911476;74;21170;-83
2022/04/16 02:09:02;;;;;;;40.67;35.33;;;30.70;80.30;;;;;;1889707;74;21138;-84
2022/04/16 02:11:33;;;;;;;40.95;36.30;;;30.80;79.70;;;;;;1901143;74;21248;-82
2022/04/16 02:14:04;;;;;;;44.88;36.70;;;30.80;80.00;;;;;;1901873;74;21217;-83
2022/04/16 02:16:40;;;;;;;35.90;32.10;;;30.80;79.70;;;;;;1892992;74;21179;-82
2022/04/16 02:19:16;;;;;;;36.40;31.17;;;30.90;78.70;;;;;;1889379;74;21130;-82
2022/04/16 02:21:48;;;;;;;35.58;31.45;;;31.00;77.20;;;;;;1916846;74;21094;-82
2022/04/16 02:24:19;;;;;;;37.58;32.53;;;31.10;76.00;;;;;;1897645;75;21089;-81
2022/04/16 02:26:50;;;;;;;37.33;31.15;;;31.10;76.20;;;;;;1895774;74;21694;-84
2022/04/16 02:29:21;;;;;;;35.23;31.25;;;31.20;75.60;;;;;;1890120;74;21121;-80
2022/04/16 02:31:56;;;;;;;38.15;30.37;;;31.30;74.90;;;;;;1923659;74;21264;-82
2022/04/16 02:34:27;;;;;;;34.40;30.50;;;31.50;74.00;;;;;;1820830;77;21162;-81
2022/04/16 02:36:58;;;;;;;39.90;31.97;;;31.50;73.10;;;;;;1840692;77;21099;-81
2022/04/16 02:39:29;;;;;;;36.38;30.00;;;31.50;74.50;;;;;;1851851;76;21150;-81
2022/04/16 02:42:00;;;;;;;35.30;28.65;;;31.60;72.60;;;;;;1842947;76;21090;-81
2022/04/16 02:47:08;;;;;;;37.28;30.17;;;31.90;71.40;;;;;;1856880;76;21100;-84
2022/04/16 02:49:39;;;;;;;34.20;30.12;;;32.00;71.30;;;;;;1842444;76;21085;-82
2022/04/16 02:52:11;;;;;;;33.28;29.70;;;32.10;72.50;;;;;;1898704;74;21094;-82
2022/04/16 02:54:41;;;;;;;33.23;27.70;;;32.10;71.80;;;;;;1892168;74;21075;-82
2022/04/16 02:57:14;;;;;;;33.70;29.02;;;32.30;70.60;;;;;;1926454;74;21137;-82
2022/04/16 02:59:46;;;;;;;32.03;28.65;;;32.40;69.10;;;;;;1924399;74;21219;-82
2022/04/16 03:02:18;;;;;;;34.20;29.20;;;32.50;67.70;;;;;;1827820;78;21145;-84
2022/04/16 03:04:51;;;;;;;33.53;27.98;;;32.70;67.40;;;;;;1863999;75;21094;-82
2022/04/16 03:07:27;;;;;;;31.55;27.45;;;32.80;66.60;;;;;;1869046;76;21173;-82
2022/04/16 03:09:54;;;;;;;31.80;25.90;;;32.90;64.10;;;;;;1849932;76;21051;-82
2022/04/16 03:12:25;;;;;;;34.03;26.52;;;33.00;64.30;;;;;;1849947;76;21130;-84
2022/04/16 03:17:35;;;;;;;29.98;26.57;;;33.20;62.20;;;;;;1845299;76;21148;-82
2022/04/16 03:20:06;;;;;;;30.12;25.48;;;33.40;62.30;;;;;;1846730;76;21145;-83
2022/04/16 03:22:48;;;;;;;30.20;26.95;;;33.50;61.70;;;;;;1885341;75;21120;-81
2022/04/16 03:25:20;;;;;;;30.10;26.70;;;33.60;62.00;;;;;;1857177;76;21176;-82
2022/04/16 03:27:55;;;;;;;32.95;27.52;;;33.70;61.30;;;;;;1902672;74;21154;-82
2022/04/16 03:30:26;;;;;;;30.37;26.37;;;33.80;60.60;;;;;;1838660;77;21110;-82
2022/04/16 03:32:58;;;;;;;29.67;25.82;;;34.00;60.60;;;;;;1819225;77;21149;-83
2022/04/16 03:35:34;;;;;;;27.42;24.57;;;34.00;59.80;;;;;;1843805;76;21263;-83
2022/04/16 03:38:05;;;;;;;28.10;23.80;;;34.10;59.00;;;;;;1871526;75;21071;-83
2022/04/16 03:40:57;;;;;;;26.52;23.02;;;34.10;57.30;;;;;;1873753;75;21050;-82
2022/04/16 03:43:29;;;;;;;28.05;24.30;;;34.20;58.30;;;;;;1871917;75;21137;-83
2022/04/16 03:45:58;;;;;;;28.57;25.10;;;34.30;57.50;;;;;;1792376;78;21266;-81
2022/04/16 03:48:29;;;;;;;26.25;23.38;;;34.30;58.70;;;;;;1827050;77;21164;-82
2022/04/16 03:51:01;;;;;;;31.50;26.02;;;34.30;57.30;;;;;;1807804;78;21772;-82
2022/04/16 03:53:34;;;;;;;34.27;26.82;;;34.30;59.50;;;;;;1793784;78;21103;-82
2022/04/16 04:01:10;;;;;;;29.00;25.32;;;34.60;60.00;;;;;;1870820;75;21085;-83
2022/04/16 04:03:41;;;;;;;28.70;25.65;;;34.70;60.10;;;;;;1878714;75;21220;-83
2022/04/16 04:06:12;;;;;;;29.92;26.15;;;34.90;59.70;;;;;;1828171;77;21094;-83
2022/04/16 04:08:43;;;;;;;30.35;26.85;;;35.00;59.20;;;;;;1827443;77;21145;-83
2022/04/16 04:11:14;;;;;;;29.60;25.97;;;35.00;58.40;;;;;;1823927;77;21081;-83
2022/04/16 04:13:45;;;;;;;29.75;26.15;;;35.20;58.40;;;;;;1866086;75;21087;-82
2022/04/16 04:16:16;;;;;;;30.95;25.08;;;35.30;57.10;;;;;;1794488;78;21181;-84
2022/04/16 04:18:47;;;;;;;29.00;25.95;;;35.30;57.60;;;;;;1827757;77;21096;-83
2022/04/16 04:21:20;;;;;;;30.45;25.77;;;35.40;57.80;;;;;;1807156;78;21147;-83
2022/04/16 04:23:51;;;;;;;29.70;25.68;;;35.50;57.50;;;;;;1831774;77;21067;-85
2022/04/16 04:26:22;;;;;;;29.42;25.70;;;35.60;56.90;;;;;;1829907;77;21055;-84
2022/04/16 04:28:54;;;;;;;28.90;25.77;;;35.70;57.70;;;;;;1811565;78;21162;-82
2022/04/16 04:31:27;;;;;;;28.27;25.27;;;35.70;57.00;;;;;;1874354;75;21117;-83
2022/04/16 04:33:58;;;;;;;27.37;24.45;;;35.70;55.80;;;;;;1852983;77;21251;-83
2022/04/16 04:36:28;;;;;;;26.30;23.15;;;35.80;55.50;;;;;;1876615;74;21173;-83
2022/04/16 04:39:00;;;;;;;26.50;23.83;;;35.80;54.10;;;;;;1852779;76;21094;-83
2022/04/16 04:41:30;;;;;;;27.58;23.67;;;35.90;55.60;;;;;;1856086;76;21142;-81
2022/04/16 04:44:01;;;;;;;28.40;23.77;;;35.90;54.10;;;;;;1878425;75;21794;-83
2022/04/16 04:46:33;;;;;;;27.95;24.05;;;36.00;54.70;;;;;;1892218;74;21139;-83
2022/04/16 04:49:07;;;;;;;28.65;24.92;;;36.10;55.00;;;;;;1838135;76;21155;-83
2022/04/16 04:51:37;;;;;;;25.72;23.02;;;36.10;54.30;;;;;;1891599;75;21051;-83
2022/04/16 04:54:08;;;;;;;25.12;22.32;;;36.20;55.00;;;;;;1850415;76;21135;-83
2022/04/16 04:56:39;;;;;;;28.40;22.85;;;36.10;55.30;;;;;;1912253;74;21142;-83
2022/04/16 04:59:10;;;;;;;25.23;22.45;;;36.20;53.20;;;;;;1852510;76;21072;-83
2022/04/16 05:01:41;;;;;;;24.50;21.42;;;36.30;56.90;;;;;;1883690;74;21127;-83
2022/04/16 05:04:12;;;;;;;29.32;22.73;;;36.90;55.30;;;;;;1834068;76;21176;-82
2022/04/16 05:06:43;;;;;;;26.55;21.77;;;38.70;53.50;;;;;;1867976;75;21158;-84
2022/04/16 05:09:15;;;;;;;24.82;20.55;;;36.60;53.00;;;;;;1870142;76;21075;-84
2022/04/16 05:11:46;;;;;;;23.62;19.75;;;36.60;54.40;;;;;;1864326;76;21048;-84
2022/04/16 05:14:22;;;;;;;24.02;21.15;;;36.70;52.90;;;;;;1879863;74;21125;-82
2022/04/16 05:16:53;;;;;;;23.98;20.80;;;36.80;53.40;;;;;;1922231;74;21079;-82
2022/04/16 05:19:29;;;;;;;24.65;21.50;;;37.00;90.50;;;;;;1902277;74;21113;-82
2022/04/16 05:22:00;;;;;;;25.50;19.77;;;37.10;86.00;;;;;;1899022;75;21077;-82
2022/04/16 05:24:33;;;;;;;25.30;20.97;;;37.50;78.90;;;;;;1898426;75;21138;-84
2022/04/16 05:27:04;;;;;;;24.18;21.25;;;37.20;75.50;;;;;;1881564;75;21260;-84
2022/04/16 05:32:12;;;;;;;21.68;19.42;;;37.20;63.70;;;;;;1871091;75;21180;-82
2022/04/16 05:34:47;;;;;;;26.27;20.77;;;37.10;50.30;;;;;;1883164;75;21139;-83
2022/04/16 05:37:18;;;;;;;23.30;19.00;;;37.10;51.80;;;;;;1891005;75;21145;-82
2022/04/16 05:39:50;;;;;;;23.27;20.92;;;37.20;50.90;;;;;;1891155;74;21553;-83
2022/04/16 05:42:21;;;;;;;23.83;21.37;;;37.10;51.00;;;;;;1876746;75;21137;-83
2022/04/16 05:44:51;;;;;;;25.45;21.57;;;37.10;49.50;;;;;;1876855;76;21087;-83
2022/04/16 05:47:23;;;;;;;24.35;21.33;;;37.10;49.70;;;;;;1879355;75;21628;-83
2022/04/16 05:49:59;;;;;;;25.45;22.30;;;37.10;49.60;;;;;;1850584;77;21283;-84
2022/04/16 05:52:31;;;;;;;27.25;21.17;;;37.20;51.00;;;;;;1836340;78;21169;-83
2022/04/16 05:55:03;;;;;;;23.80;21.12;;;37.10;50.90;;;;;;1866279;77;21165;-82
2022/04/16 05:57:38;;;;;;;22.22;19.98;;;37.10;54.20;;;;;;1866890;77;21162;-82
2022/04/16 06:00:08;;;;;;;28.00;22.70;;;37.20;53.50;;;;;;1867019;76;21236;-82
2022/04/16 06:02:38;;;;;;;26.10;22.05;;;37.10;53.80;;;;;;1884783;75;21219;-83
2022/04/16 06:05:10;;;;;;;26.10;23.00;;;37.20;55.80;;;;;;1865289;76;21447;-83
2022/04/16 06:07:41;;;;;;;24.85;21.65;;;37.20;54.80;;;;;;1858423;77;21176;-83
2022/04/16 06:10:12;;;;;;;24.40;21.73;;;37.20;51.20;;;;;;1858447;77;21115;-83
2022/04/16 06:12:43;;;;;;;24.98;20.27;;;37.20;53.30;;;;;;1858327;77;21099;-82
2022/04/16 06:15:14;;;;;;;24.15;21.30;;;37.10;52.80;;;;;;1894810;75;21118;-82
2022/04/16 06:17:45;;;;;;;24.18;19.98;;;37.10;52.00;;;;;;1894679;76;21269;-83
2022/04/16 06:20:16;;;;;;;22.30;19.92;;;37.10;49.40;;;;;;1894702;74;21110;-83
2022/04/16 06:22:49;;;;;;;21.50;19.37;;;37.20;52.30;;;;;;1894927;76;21134;-83
2022/04/16 06:25:25;;;;;;;26.75;20.50;;;37.20;52.00;;;;;;1894965;76;21099;-82
2022/04/16 06:27:56;;;;;;;22.55;20.10;;;37.20;52.30;;;;;;1896427;75;21143;-83
2022/04/16 06:30:27;;;;;;;22.70;19.57;;;37.20;48.30;;;;;;1895219;75;21088;-83
2022/04/16 06:32:58;;;;;;;21.42;18.70;;;37.10;49.00;;;;;;1899355;75;21154;-83
2022/04/16 06:35:29;;;;;;;22.07;18.40;;;37.10;50.20;;;;;;1898850;75;21150;-83
2022/04/16 06:38:00;;;;;;;23.55;20.08;;;37.00;50.00;;;;;;1893970;75;21099;-84
2022/04/16 06:40:31;;;;;;;21.68;19.12;;;36.90;51.30;;;;;;1891011;76;21095;-83
2022/04/16 06:43:03;;;;;;;24.82;19.45;;;36.90;53.70;;;;;;1890960;76;21091;-82
2022/04/16 06:45:34;;;;;;;22.25;19.87;;;36.70;55.20;;;;;;1891081;76;21095;-83
2022/04/16 06:48:06;;;;;;;22.75;19.65;;;36.60;49.30;;;;;;1890935;76;21154;-83
2022/04/16 06:50:43;;;;;;;23.50;20.02;;;36.60;49.00;;;;;;1890724;76;21067;-84
2022/04/16 06:53:15;;;;;;;22.67;19.77;;;36.40;49.20;;;;;;1890976;76;21232;-83
2022/04/16 06:55:49;;;;;;;21.82;19.40;;;36.40;50.10;;;;;;1895938;74;21195;-82
2022/04/16 06:58:20;;;;;;;23.02;20.45;;;36.50;54.10;;;;;;1859475;77;21200;-83
2022/04/16 07:00:51;;;;;;;26.10;21.07;;;36.90;50.10;;;;;;1898093;75;21111;-83
2022/04/16 07:03:23;;;;;;;22.70;18.60;;;36.50;48.40;;;;;;1859470;77;21087;-84
2022/04/16 07:05:53;;;;;;;23.50;19.37;;;36.60;48.80;;;;;;1913871;74;21079;-83
2022/04/16 07:08:26;;;;;;;23.87;19.67;;;36.70;48.50;;;;;;1922688;75;21067;-83
2022/04/16 07:10:56;;;;;;;22.05;19.23;;;36.70;50.40;;;;;;1922756;75;21059;-83
2022/04/16 07:13:27;;;;;;;23.35;20.00;;;36.80;51.00;;;;;;1874657;77;21050;-82
2022/04/16 07:16:01;;;;;;;23.65;19.37;;;36.80;50.80;;;;;;1875531;77;21091;-83
2022/04/16 07:18:33;;;;;;;22.35;19.32;;;36.90;51.60;;;;;;1863301;77;21098;-82
2022/04/16 07:21:04;;;;;;;22.50;20.12;;;36.90;49.90;;;;;;1858504;77;21139;-83
2022/04/16 07:23:34;;;;;;;21.60;18.55;;;36.90;49.80;;;;;;1835296;78;21094;-82
2022/04/16 07:26:05;;;;;;;23.67;19.05;;;36.80;49.50;;;;;;1834071;78;21169;-83
2022/04/16 07:28:39;;;;;;;22.27;19.65;;;36.90;50.50;;;;;;1833833;78;21175;-84
2022/04/16 07:31:10;;;;;;;21.23;18.95;;;36.80;49.70;;;;;;1834165;78;21153;-83
2022/04/16 07:33:41;;;;;;;25.30;19.75;;;36.90;49.50;;;;;;1828176;78;21098;-83
2022/04/16 07:36:12;;;;;;;21.35;18.77;;;36.80;49.50;;;;;;1846174;77;21096;-83
2022/04/16 07:38:43;;;;;;;23.85;19.00;;;36.80;50.00;;;;;;1864269;75;21236;-83
2022/04/16 07:41:14;;;;;;;19.85;17.80;;;36.80;49.90;;;;;;1854365;76;21204;-84
2022/04/16 07:43:45;;;;;;;22.70;18.42;;;36.80;50.00;;;;;;1894719;74;21083;-82
2022/04/16 07:46:21;;;;;;;23.00;18.95;;;36.90;49.40;;;;;;1899834;74;21177;-83
2022/04/16 07:48:49;;;;;;;23.45;18.70;;;36.80;49.50;;;;;;1883124;74;21169;-83
2022/04/16 07:51:20;;;;;;;21.25;17.98;;;36.80;51.30;;;;;;1867459;76;21444;-83
2022/04/16 07:53:52;;;;;;;21.70;19.45;;;36.80;50.10;;;;;;1810035;78;21169;-84
2022/04/16 07:56:24;;;;;;;21.45;19.12;;;36.90;49.50;;;;;;1885822;75;21216;-81
2022/04/16 07:58:57;;;;;;;21.15;18.75;;;36.90;49.70;;;;;;1863327;76;21084;-83
2022/04/16 08:01:28;;;;;;;22.52;20.12;;;36.80;49.50;;;;;;1838249;78;21074;-83
2022/04/16 08:03:59;;;;;;;22.05;19.27;;;36.80;50.20;;;;;;1814052;79;21172;-83
2022/04/16 08:06:30;;;;;;;22.93;20.23;;;36.80;50.80;;;;;;1828598;78;21124;-84
2022/04/16 08:09:01;;;;;;;21.75;19.50;;;36.70;51.90;;;;;;1823920;77;21103;-83
2022/04/16 08:11:33;;;;;;;22.67;20.27;;;36.60;52.70;;;;;;1822359;78;21161;-83
2022/04/16 08:14:04;;;;;;;23.18;19.95;;;36.50;52.20;;;;;;1888336;74;21056;-82
2022/04/16 08:16:35;;;;;;;22.35;20.15;;;36.40;52.50;;;;;;1887764;75;21091;-83
2022/04/16 08:19:06;;;;;;;22.93;20.55;;;36.40;53.80;;;;;;1883801;75;21148;-85
2022/04/16 08:21:37;;;;;;;22.22;19.65;;;36.40;53.70;;;;;;1860309;76;21288;-82
2022/04/16 08:24:44;;;;;;;23.38;19.32;;;36.40;55.40;;;;;;1830511;78;21185;-85
2022/04/16 08:26:42;;;;;;;23.02;19.55;;;36.30;55.20;;;;;;1801485;79;21174;-84
2022/04/16 08:29:13;;;;;;;22.50;20.10;;;36.30;54.30;;;;;;1873270;76;21190;-84
2022/04/16 08:31:44;;;;;;;22.40;19.48;;;36.30;51.80;;;;;;1859430;76;21067;-84
2022/04/16 08:34:16;;;;;;;21.95;19.65;;;36.30;51.40;;;;;;1870495;76;21303;-83
2022/04/16 08:36:47;;;;;;;26.25;20.25;;;36.20;51.40;;;;;;1880131;75;21099;-82
2022/04/16 08:39:18;;;;;;;21.73;19.48;;;36.10;51.50;;;;;;1832281;76;21119;-81
2022/04/16 08:41:50;;;;;;;24.57;19.87;;;36.20;51.70;;;;;;1817639;78;21075;-82
2022/04/16 08:44:22;;;;;;;23.32;20.23;;;36.10;51.90;;;;;;1806038;78;21192;-83
2022/04/16 08:46:56;;;;;;;23.25;20.68;;;36.10;52.30;;;;;;1879288;75;21058;-83
2022/04/16 08:49:30;;;;;;;22.73;20.35;;;36.00;52.90;;;;;;1833634;77;21153;-82
2022/04/16 08:52:06;;;;;;;22.05;19.70;;;36.00;52.90;;;;;;1845473;77;21127;-82
2022/04/16 08:54:41;;;;;;;24.30;20.57;;;36.00;52.40;;;;;;1839571;77;21106;-83
2022/04/16 08:57:14;;;;;;;23.73;21.12;;;36.00;53.00;;;;;;1836560;77;21154;-84
2022/04/16 08:59:47;;;;;;;23.07;20.02;;;36.00;52.70;;;;;;1827967;77;21144;-83
2022/04/16 09:02:20;;;;;;;26.50;20.17;;;36.00;52.50;;;;;;1799473;79;21170;-82
2022/04/16 09:04:54;;;;;;;22.40;20.10;;;36.10;52.70;;;;;;1880472;75;21179;-82
2022/04/16 09:07:24;;;;;;;22.58;20.32;;;36.00;52.80;;;;;;1796272;79;21233;-82
2022/04/16 09:10:01;;;;;;;21.90;19.65;;;36.10;52.90;;;;;;1824275;77;21586;-83
2022/04/16 09:12:34;;;;;;;23.30;20.72;;;36.10;53.60;;;;;;1844455;77;21102;-82
2022/04/16 09:15:07;;;;;;;23.55;21.07;;;36.10;52.90;;;;;;1840447;77;21078;-82
2022/04/16 09:17:40;;;;;;;24.35;20.80;;;36.10;53.30;;;;;;1836555;77;21097;-83
2022/04/16 09:20:13;;;;;;;24.55;20.02;;;36.10;53.30;;;;;;1820537;79;21099;-83
2022/04/16 09:22:49;;;;;;;24.72;21.90;;;36.10;53.00;;;;;;1788412;80;21094;-83
2022/04/16 09:25:18;;;;;;;26.65;23.77;;;36.10;53.60;;;;;;1788132;79;21142;-82
2022/04/16 09:27:52;;;;;;;23.10;20.80;;;36.10;54.00;;;;;;1826805;77;21633;-82
2022/04/16 09:30:25;;;;;;;24.50;21.97;;;36.00;54.10;;;;;;1827987;77;21055;-83
2022/04/16 09:32:58;;;;;;;23.75;20.50;;;36.00;54.00;;;;;;1802320;78;21629;-82
2022/04/16 09:35:31;;;;;;;26.40;22.15;;;36.10;54.20;;;;;;1829420;77;21612;-83
2022/04/16 09:38:10;;;;;;;25.62;20.77;;;35.90;53.70;;;;;;1844568;77;21141;-83
2022/04/16 09:40:40;;;;;;;25.23;22.02;;;35.90;54.00;;;;;;1843636;76;21144;-84
2022/04/16 09:43:11;;;;;;;24.15;21.80;;;35.90;54.20;;;;;;1882154;76;21155;-83
2022/04/16 09:45:42;;;;;;;26.60;21.73;;;35.90;54.50;;;;;;1884621;74;21708;-84
2022/04/16 09:48:15;;;;;;;28.30;21.52;;;35.90;54.50;;;;;;1884892;74;21083;-84
2022/04/16 09:50:46;;;;;;;24.65;21.82;;;35.90;54.80;;;;;;1878891;75;21087;-84
2022/04/16 09:53:20;;;;;;;25.00;22.22;;;35.80;54.70;;;;;;1888716;74;21192;-82
2022/04/16 09:55:51;;;;;;;24.23;21.60;;;35.80;54.90;;;;;;1920161;74;21249;-82
2022/04/16 09:58:25;;;;;;;27.37;22.35;;;35.70;55.10;;;;;;1902341;74;21150;-82
2022/04/16 10:00:56;;;;;;;31.73;24.80;;;35.70;55.20;;;;;;1902416;75;21147;-81
2022/04/16 10:03:29;;;;;;;38.17;24.45;;;35.70;57.00;;;;;;1894210;74;21040;-81
2022/04/16 10:06:01;;;;;;;32.42;25.15;;;35.60;59.30;;;;;;1828260;77;21099;-83
2022/04/16 10:08:34;;;;;;;28.92;25.30;;;35.40;60.70;;;;;;1872590;75;21132;-84
2022/04/16 10:11:06;;;;;;;29.65;25.08;;;35.30;61.60;;;;;;1885582;75;21056;-83
2022/04/16 10:13:39;;;;;;;31.35;26.97;;;35.20;62.60;;;;;;1883920;74;21137;-80
2022/04/16 10:16:13;;;;;;;27.85;24.92;;;34.90;62.90;;;;;;1884860;74;21134;-82
2022/04/16 10:18:45;;;;;;;31.45;26.25;;;34.80;63.60;;;;;;1869481;77;21064;-83
2022/04/16 10:21:18;;;;;;;28.67;24.77;;;34.80;63.80;;;;;;1878997;74;21594;-82
2022/04/16 10:23:49;;;;;;;28.35;25.23;;;34.70;63.80;;;;;;1892058;74;21136;-81
2022/04/16 10:26:20;;;;;;;28.15;25.17;;;34.50;64.70;;;;;;1894370;74;21150;-80
2022/04/16 10:28:53;;;;;;;32.08;25.25;;;34.40;65.30;;;;;;1866684;74;21631;-83
2022/04/16 10:31:30;;;;;;;31.15;25.35;;;34.30;65.60;;;;;;1869544;77;21065;-82
2022/04/16 10:34:02;;;;;;;34.98;25.68;;;34.30;66.00;;;;;;1851798;77;21059;-82
2022/04/16 10:36:37;;;;;;;28.70;25.62;;;34.20;67.30;;;;;;1896736;74;21148;-81
2022/04/16 10:39:13;;;;;;;32.30;25.97;;;34.10;68.10;;;;;;1874409;74;21142;-82
2022/04/16 10:41:46;;;;;;;28.12;25.32;;;34.00;69.20;;;;;;1881941;75;21216;-81
2022/04/16 10:44:17;;;;;;;30.27;25.17;;;34.00;71.20;;;;;;1874536;75;21153;-82
2022/04/16 10:46:50;;;;;;;31.05;26.68;;;34.00;69.80;;;;;;1844245;77;21295;-82
2022/04/16 10:49:24;;;;;;;28.67;25.43;;;33.90;68.80;;;;;;1797142;79;21067;-82
2022/04/16 10:51:56;;;;;;;29.02;25.90;;;33.90;68.40;;;;;;1862454;76;21139;-81
2022/04/16 10:54:34;;;;;;;27.85;24.85;;;33.80;68.20;;;;;;1832551;77;21165;-82
2022/04/16 10:57:06;;;;;;;31.97;25.30;;;33.70;65.20;;;;;;1881699;75;21422;-81
2022/04/16 10:59:38;;;;;;;26.95;23.67;;;33.60;65.00;;;;;;1887743;75;21059;-82
2022/04/16 11:02:13;;;;;;;28.95;25.68;;;33.60;64.90;;;;;;1890457;74;21069;-83
2022/04/16 11:04:47;;;;;;;29.50;25.70;;;33.60;65.40;;;;;;1911940;75;21063;-82
2022/04/16 11:07:18;;;;;;;30.80;26.68;;;33.50;65.80;;;;;;1887089;74;21064;-82
2022/04/16 11:09:52;;;;;;;33.58;26.45;;;33.50;66.30;;;;;;1870520;75;21095;-82
2022/04/16 11:12:26;;;;;;;30.50;26.93;;;33.60;67.90;;;;;;1882195;75;21141;-84
2022/04/16 11:14:59;;;;;;;30.75;27.42;;;33.40;68.40;;;;;;1881241;75;21082;-84
2022/04/16 11:17:31;;;;;;;32.73;27.95;;;33.40;70.20;;;;;;1881530;74;21061;-83
2022/04/16 11:20:04;;;;;;;30.65;27.32;;;33.40;75.10;;;;;;1877724;74;21130;-83
2022/04/16 11:22:36;;;;;;;30.77;27.32;;;33.50;77.30;;;;;;1880466;75;21153;-82
2022/04/16 11:25:09;;;;;;;37.20;29.42;;;33.40;78.60;;;;;;1880241;74;21075;-82
2022/04/16 11:35:23;;;;;;;41.53;34.10;;;33.20;82.80;;;;;;1884827;74;21774;-83
2022/04/16 11:37:55;;;;;;;40.95;34.45;;;;;;;;;;1881648;75;21093;-82
2022/04/16 11:40:25;;;;;;;44.03;35.50;;;33.20;96.60;;;;;;1888757;76;21224;-82
2022/04/16 11:42:57;;;;;;;42.15;35.13;;;33.10;94.60;;;;;;1892074;74;21073;-82
2022/04/16 11:45:30;;;;;;;37.80;32.95;;;33.10;90.00;;;;;;1887033;74;21147;-83
2022/04/16 11:48:00;;;;;;;41.90;34.20;;;33.00;68.00;;;;;;1891676;75;21122;-83
2022/04/16 11:50:32;;;;;;;38.70;33.65;;;32.90;68.30;;;;;;1891392;75;21058;-82
2022/04/16 11:53:03;;;;;;;37.45;32.83;;;32.80;68.60;;;;;;1894765;75;21134;-83
2022/04/16 11:55:34;;;;;;;45.67;34.83;;;32.80;69.00;;;;;;1884423;75;21233;-82
2022/04/16 11:58:07;;;;;;;42.70;35.05;;;32.80;69.70;;;;;;1895277;75;21147;-81
2022/04/16 12:00:42;;;;;;;41.85;35.50;;;32.70;70.00;;;;;;1909994;75;21797;-82
2022/04/16 12:03:14;;;;;;;38.38;34.10;;;32.70;70.70;;;;;;1871839;75;21154;-83
2022/04/16 12:05:48;;;;;;;41.48;34.75;;;32.70;73.50;;;;;;1873056;75;21079;-83
2022/04/16 12:08:20;;;;;;;40.25;33.63;;;32.60;86.40;;;;;;1880615;75;21086;-82
2022/04/16 12:10:52;;;;;;;43.13;34.00;;;32.60;72.90;;;;;;1886233;75;21590;-83
2022/04/16 12:13:23;;;;;;;40.78;35.15;;;32.70;76.30;;;;;;1886608;75;21189;-83
2022/04/16 12:15:54;;;;;;;42.70;36.58;;;32.60;77.50;;;;;;1901929;75;21103;-82
2022/04/16 12:18:24;;;;;;;41.45;34.90;;;32.60;76.90;;;;;;1860601;75;21697;-82
2022/04/16 12:20:56;;;;;;;42.25;36.73;;;32.50;72.40;;;;;;1895080;75;21093;-82
2022/04/16 12:23:27;;;;;;;43.85;36.90;;;32.40;72.40;;;;;;1875256;75;21153;-83
2022/04/16 12:26:01;;;;;;;46.80;36.35;;;32.40;72.70;;;;;;1889064;75;21220;-82
2022/04/16 12:28:33;;;;;;;43.63;37.38;;;32.40;73.00;;;;;;1884760;75;21087;-83
2022/04/16 12:31:04;;;;;;;43.75;39.03;;;32.40;74.30;;;;;;1900433;75;21097;-82
2022/04/16 12:33:35;;;;;;;42.55;37.95;;;32.30;80.80;;;;;;1891572;75;21108;-81
2022/04/16 12:36:08;;;;;;;45.12;37.83;;;32.40;77.70;;;;;;1892401;74;21164;-82
2022/04/16 12:38:38;;;;;;;45.08;35.08;;;32.30;74.60;;;;;;1889875;75;21104;-82
2022/04/16 12:41:11;;;;;;;41.35;36.05;;;32.30;74.60;;;;;;1881268;75;21159;-84
2022/04/16 12:43:42;;;;;;;39.23;34.90;;;32.20;74.80;;;;;;1879630;75;21083;-83
2022/04/16 12:46:14;;;;;;;41.70;35.30;;;32.20;75.40;;;;;;1866097;76;21142;-83
2022/04/16 12:48:45;;;;;;;41.08;34.33;;;32.20;76.00;;;;;;1899810;75;21095;-81
2022/04/16 12:51:16;;;;;;;38.75;34.48;;;32.10;76.10;;;;;;1899843;75;21085;-82
2022/04/16 12:53:47;;;;;;;37.95;33.67;;;32.20;93.00;;;;;;1897658;75;21100;-83
2022/04/16 12:56:18;;;;;;;39.03;32.48;;;32.10;94.90;;;;;;1909882;75;21089;-81
2022/04/16 12:58:49;;;;;;;40.08;31.48;;;32.00;93.20;;;;;;1898019;74;21064;-82
2022/04/16 13:01:24;;;;;;;35.38;29.82;;;32.00;93.80;;;;;;1905543;75;21067;-82
2022/04/16 13:03:55;;;;;;;36.03;31.12;;;31.90;85.60;;;;;;1864580;76;21563;-82
2022/04/16 13:06:29;;;;;;;39.63;30.32;;;32.00;84.00;;;;;;1863463;77;21086;-82
2022/04/16 13:09:03;;;;;;;36.03;30.20;;;31.80;91.00;;;;;;1852302;77;21150;-83
2022/04/16 13:11:34;;;;;;;32.73;29.30;;;31.80;91.20;;;;;;1838429;77;21146;-82
2022/04/16 13:14:05;;;;;;;35.70;30.45;;;31.60;85.80;;;;;;1833937;77;21527;-82